Aviation Digital Data Service (ADDS)

Output produced by TAFs form (0346 UTC 19 September 2014)
found at http://aviationweather.gov/adds/tafs/
 
KVEL 182339Z 1900/1924 06003KT P6SM FEW100 
     FM190200 29005KT P6SM SCT100 
     FM191500 14003KT P6SM FEW120 
     FM192000 22006KT P6SM FEW100 SCT150